sensor_id;sensor_type;location;lat;lon;timestamp;P1;durP1;ratioP1;P2;durP2;ratioP2
40254;SDS011;25973;52.368;4.940;2022-08-05T00:00:10;6.55;;;2.47;;
40254;SDS011;25973;52.368;4.940;2022-08-05T00:02:36;3.33;;;1.25;;
40254;SDS011;25973;52.368;4.940;2022-08-05T00:05:02;4.47;;;1.52;;
40254;SDS011;25973;52.368;4.940;2022-08-05T00:07:28;4.43;;;1.73;;
40254;SDS011;25973;52.368;4.940;2022-08-05T00:09:53;8.73;;;1.80;;
40254;SDS011;25973;52.368;4.940;2022-08-05T00:12:19;5.38;;;1.65;;
40254;SDS011;25973;52.368;4.940;2022-08-05T00:14:44;9.35;;;3.45;;
40254;SDS011;25973;52.368;4.940;2022-08-05T00:17:10;9.52;;;3.00;;
40254;SDS011;25973;52.368;4.940;2022-08-05T00:19:35;6.47;;;3.08;;
40254;SDS011;25973;52.368;4.940;2022-08-05T00:22:01;9.43;;;2.67;;
40254;SDS011;25973;52.368;4.940;2022-08-05T00:24:28;5.82;;;2.28;;
40254;SDS011;25973;52.368;4.940;2022-08-05T00:26:53;5.90;;;1.77;;
40254;SDS011;25973;52.368;4.940;2022-08-05T00:29:19;10.45;;;2.45;;
40254;SDS011;25973;52.368;4.940;2022-08-05T00:31:45;9.63;;;2.17;;
40254;SDS011;25973;52.368;4.940;2022-08-05T00:34:12;11.50;;;2.47;;
40254;SDS011;25973;52.368;4.940;2022-08-05T00:36:37;7.30;;;2.22;;
40254;SDS011;25973;52.368;4.940;2022-08-05T00:39:03;4.03;;;1.65;;
40254;SDS011;25973;52.368;4.940;2022-08-05T00:41:32;9.13;;;1.80;;
40254;SDS011;25973;52.368;4.940;2022-08-05T00:43:59;4.50;;;1.58;;
40254;SDS011;25973;52.368;4.940;2022-08-05T00:46:25;6.32;;;1.70;;
40254;SDS011;25973;52.368;4.940;2022-08-05T00:48:50;8.90;;;1.63;;
40254;SDS011;25973;52.368;4.940;2022-08-05T00:51:17;6.53;;;1.77;;
40254;SDS011;25973;52.368;4.940;2022-08-05T00:53:44;10.82;;;2.80;;
40254;SDS011;25973;52.368;4.940;2022-08-05T00:56:09;12.15;;;3.03;;
40254;SDS011;25973;52.368;4.940;2022-08-05T00:58:35;6.40;;;2.08;;
40254;SDS011;25973;52.368;4.940;2022-08-05T01:01:01;5.72;;;2.10;;
40254;SDS011;25973;52.368;4.940;2022-08-05T01:03:27;12.43;;;2.42;;
40254;SDS011;25973;52.368;4.940;2022-08-05T01:05:54;9.77;;;3.05;;
40254;SDS011;25973;52.368;4.940;2022-08-05T01:08:20;8.07;;;2.97;;
40254;SDS011;25973;52.368;4.940;2022-08-05T01:10:55;7.68;;;2.80;;
40254;SDS011;25973;52.368;4.940;2022-08-05T01:15:58;12.43;;;2.90;;
40254;SDS011;25973;52.368;4.940;2022-08-05T01:18:32;7.72;;;2.92;;
40254;SDS011;25973;52.368;4.940;2022-08-05T01:24:04;7.40;;;2.22;;
40254;SDS011;25973;52.368;4.940;2022-08-05T01:29:36;6.63;;;2.05;;
40254;SDS011;25973;52.368;4.940;2022-08-05T01:32:08;7.07;;;2.42;;
40254;SDS011;25973;52.368;4.940;2022-08-05T01:34:36;8.90;;;1.88;;
40254;SDS011;25973;52.368;4.940;2022-08-05T01:37:17;6.07;;;1.83;;
40254;SDS011;25973;52.368;4.940;2022-08-05T01:40:04;7.05;;;2.17;;
40254;SDS011;25973;52.368;4.940;2022-08-05T01:42:31;6.30;;;1.67;;
40254;SDS011;25973;52.368;4.940;2022-08-05T01:44:58;4.82;;;2.42;;
40254;SDS011;25973;52.368;4.940;2022-08-05T01:47:25;6.55;;;2.33;;
40254;SDS011;25973;52.368;4.940;2022-08-05T01:49:53;4.43;;;1.67;;
40254;SDS011;25973;52.368;4.940;2022-08-05T01:52:21;5.70;;;1.40;;
40254;SDS011;25973;52.368;4.940;2022-08-05T01:54:50;4.95;;;1.88;;
40254;SDS011;25973;52.368;4.940;2022-08-05T01:57:23;6.53;;;1.70;;
40254;SDS011;25973;52.368;4.940;2022-08-05T01:59:53;5.88;;;1.98;;
40254;SDS011;25973;52.368;4.940;2022-08-05T02:02:23;5.07;;;1.70;;
40254;SDS011;25973;52.368;4.940;2022-08-05T02:04:50;4.93;;;1.80;;
40254;SDS011;25973;52.368;4.940;2022-08-05T02:07:18;5.43;;;1.38;;
40254;SDS011;25973;52.368;4.940;2022-08-05T02:09:44;4.82;;;1.10;;
40254;SDS011;25973;52.368;4.940;2022-08-05T02:12:16;5.28;;;1.38;;
40254;SDS011;25973;52.368;4.940;2022-08-05T02:14:47;5.18;;;0.88;;
40254;SDS011;25973;52.368;4.940;2022-08-05T02:17:22;2.60;;;1.20;;
40254;SDS011;25973;52.368;4.940;2022-08-05T02:19:54;5.72;;;1.00;;
40254;SDS011;25973;52.368;4.940;2022-08-05T02:24:57;7.03;;;1.30;;
40254;SDS011;25973;52.368;4.940;2022-08-05T02:27:28;5.50;;;1.15;;
40254;SDS011;25973;52.368;4.940;2022-08-05T02:29:57;6.90;;;1.80;;
40254;SDS011;25973;52.368;4.940;2022-08-05T02:32:25;11.52;;;1.48;;
40254;SDS011;25973;52.368;4.940;2022-08-05T02:34:54;3.92;;;1.30;;
40254;SDS011;25973;52.368;4.940;2022-08-05T02:37:25;2.45;;;1.05;;
40254;SDS011;25973;52.368;4.940;2022-08-05T02:39:52;2.97;;;0.80;;
40254;SDS011;25973;52.368;4.940;2022-08-05T02:42:18;4.13;;;1.33;;
40254;SDS011;25973;52.368;4.940;2022-08-05T02:44:45;7.90;;;2.05;;
40254;SDS011;25973;52.368;4.940;2022-08-05T02:47:12;5.00;;;1.52;;
40254;SDS011;25973;52.368;4.940;2022-08-05T02:49:39;5.80;;;1.80;;
40254;SDS011;25973;52.368;4.940;2022-08-05T02:52:09;4.75;;;1.80;;
40254;SDS011;25973;52.368;4.940;2022-08-05T02:54:37;6.32;;;2.03;;
40254;SDS011;25973;52.368;4.940;2022-08-05T02:57:05;10.73;;;2.47;;
40254;SDS011;25973;52.368;4.940;2022-08-05T02:59:34;1.60;;;1.17;;
40254;SDS011;25973;52.368;4.940;2022-08-05T03:02:00;9.20;;;1.65;;
40254;SDS011;25973;52.368;4.940;2022-08-05T03:04:26;9.77;;;2.20;;
40254;SDS011;25973;52.368;4.940;2022-08-05T03:06:52;15.57;;;3.08;;
40254;SDS011;25973;52.368;4.940;2022-08-05T03:09:19;8.07;;;2.10;;
40254;SDS011;25973;52.368;4.940;2022-08-05T03:11:44;4.70;;;2.47;;
40254;SDS011;25973;52.368;4.940;2022-08-05T03:14:10;5.82;;;1.63;;
40254;SDS011;25973;52.368;4.940;2022-08-05T03:16:36;7.85;;;1.70;;
40254;SDS011;25973;52.368;4.940;2022-08-05T03:19:02;3.25;;;1.48;;
40254;SDS011;25973;52.368;4.940;2022-08-05T03:21:28;10.25;;;2.03;;
40254;SDS011;25973;52.368;4.940;2022-08-05T03:23:54;6.43;;;1.70;;
40254;SDS011;25973;52.368;4.940;2022-08-05T03:26:21;8.55;;;1.58;;
40254;SDS011;25973;52.368;4.940;2022-08-05T03:28:47;4.93;;;1.60;;
40254;SDS011;25973;52.368;4.940;2022-08-05T03:31:12;5.35;;;1.50;;
40254;SDS011;25973;52.368;4.940;2022-08-05T03:33:38;4.30;;;1.38;;
40254;SDS011;25973;52.368;4.940;2022-08-05T03:36:05;5.82;;;1.45;;
40254;SDS011;25973;52.368;4.940;2022-08-05T03:38:30;6.60;;;1.30;;
40254;SDS011;25973;52.368;4.940;2022-08-05T03:40:56;4.20;;;1.73;;
40254;SDS011;25973;52.368;4.940;2022-08-05T03:43:22;7.50;;;1.35;;
40254;SDS011;25973;52.368;4.940;2022-08-05T03:45:50;4.18;;;1.50;;
40254;SDS011;25973;52.368;4.940;2022-08-05T03:48:18;5.28;;;2.10;;
40254;SDS011;25973;52.368;4.940;2022-08-05T03:50:51;4.05;;;1.17;;
40254;SDS011;25973;52.368;4.940;2022-08-05T03:56:06;4.07;;;1.20;;
40254;SDS011;25973;52.368;4.940;2022-08-05T03:58:47;2.88;;;1.35;;
40254;SDS011;25973;52.368;4.940;2022-08-05T04:01:14;1.33;;;0.75;;
40254;SDS011;25973;52.368;4.940;2022-08-05T04:03:43;2.20;;;0.95;;
40254;SDS011;25973;52.368;4.940;2022-08-05T04:06:10;4.28;;;0.93;;
40254;SDS011;25973;52.368;4.940;2022-08-05T04:08:36;3.15;;;1.08;;
40254;SDS011;25973;52.368;4.940;2022-08-05T04:11:02;4.13;;;1.00;;
40254;SDS011;25973;52.368;4.940;2022-08-05T04:13:31;4.03;;;0.82;;
40254;SDS011;25973;52.368;4.940;2022-08-05T04:15:56;1.65;;;1.00;;
40254;SDS011;25973;52.368;4.940;2022-08-05T04:18:22;7.25;;;1.60;;
40254;SDS011;25973;52.368;4.940;2022-08-05T04:20:52;3.92;;;1.05;;
40254;SDS011;25973;52.368;4.940;2022-08-05T04:23:19;3.63;;;1.00;;
40254;SDS011;25973;52.368;4.940;2022-08-05T04:25:47;4.70;;;1.42;;
40254;SDS011;25973;52.368;4.940;2022-08-05T04:28:13;7.10;;;1.40;;
40254;SDS011;25973;52.368;4.940;2022-08-05T04:30:38;1.80;;;1.10;;
40254;SDS011;25973;52.368;4.940;2022-08-05T04:33:04;1.25;;;0.73;;
40254;SDS011;25973;52.368;4.940;2022-08-05T04:35:29;4.68;;;1.42;;
40254;SDS011;25973;52.368;4.940;2022-08-05T04:37:55;3.00;;;1.10;;
40254;SDS011;25973;52.368;4.940;2022-08-05T04:40:21;3.50;;;0.93;;
40254;SDS011;25973;52.368;4.940;2022-08-05T04:42:46;3.58;;;0.93;;
40254;SDS011;25973;52.368;4.940;2022-08-05T04:45:12;3.35;;;1.60;;
40254;SDS011;25973;52.368;4.940;2022-08-05T04:47:37;4.80;;;1.08;;
40254;SDS011;25973;52.368;4.940;2022-08-05T04:50:03;1.88;;;0.90;;
40254;SDS011;25973;52.368;4.940;2022-08-05T04:52:28;3.28;;;0.90;;
40254;SDS011;25973;52.368;4.940;2022-08-05T04:54:54;2.67;;;0.75;;
40254;SDS011;25973;52.368;4.940;2022-08-05T04:57:20;5.43;;;1.55;;
40254;SDS011;25973;52.368;4.940;2022-08-05T04:59:45;8.60;;;1.48;;
40254;SDS011;25973;52.368;4.940;2022-08-05T05:02:11;6.05;;;1.20;;
40254;SDS011;25973;52.368;4.940;2022-08-05T05:04:36;5.75;;;1.50;;
40254;SDS011;25973;52.368;4.940;2022-08-05T05:07:02;4.35;;;1.60;;
40254;SDS011;25973;52.368;4.940;2022-08-05T05:09:28;4.85;;;1.42;;
40254;SDS011;25973;52.368;4.940;2022-08-05T05:11:53;7.60;;;1.90;;
40254;SDS011;25973;52.368;4.940;2022-08-05T05:14:19;8.52;;;1.83;;
40254;SDS011;25973;52.368;4.940;2022-08-05T05:16:44;8.35;;;2.03;;
40254;SDS011;25973;52.368;4.940;2022-08-05T05:19:10;8.27;;;2.45;;
40254;SDS011;25973;52.368;4.940;2022-08-05T05:21:35;4.60;;;2.15;;
40254;SDS011;25973;52.368;4.940;2022-08-05T05:24:01;13.00;;;2.50;;
40254;SDS011;25973;52.368;4.940;2022-08-05T05:26:26;6.75;;;2.45;;
40254;SDS011;25973;52.368;4.940;2022-08-05T05:28:52;11.68;;;2.35;;
40254;SDS011;25973;52.368;4.940;2022-08-05T05:31:17;4.47;;;1.73;;
40254;SDS011;25973;52.368;4.940;2022-08-05T05:33:43;8.93;;;2.50;;
40254;SDS011;25973;52.368;4.940;2022-08-05T05:36:08;5.93;;;2.75;;
40254;SDS011;25973;52.368;4.940;2022-08-05T05:38:34;7.32;;;2.53;;
40254;SDS011;25973;52.368;4.940;2022-08-05T05:40:59;6.50;;;1.73;;
40254;SDS011;25973;52.368;4.940;2022-08-05T05:43:25;6.45;;;1.92;;
40254;SDS011;25973;52.368;4.940;2022-08-05T05:45:50;7.15;;;1.27;;
40254;SDS011;25973;52.368;4.940;2022-08-05T05:48:16;6.90;;;1.77;;
40254;SDS011;25973;52.368;4.940;2022-08-05T05:50:41;2.88;;;1.13;;
40254;SDS011;25973;52.368;4.940;2022-08-05T05:53:07;1.88;;;0.65;;
40254;SDS011;25973;52.368;4.940;2022-08-05T05:55:33;1.58;;;0.70;;
40254;SDS011;25973;52.368;4.940;2022-08-05T05:57:59;2.15;;;0.90;;
40254;SDS011;25973;52.368;4.940;2022-08-05T06:00:24;3.13;;;1.00;;
40254;SDS011;25973;52.368;4.940;2022-08-05T06:02:50;2.28;;;0.82;;
40254;SDS011;25973;52.368;4.940;2022-08-05T06:05:16;2.63;;;0.65;;
40254;SDS011;25973;52.368;4.940;2022-08-05T06:07:42;3.33;;;0.90;;
40254;SDS011;25973;52.368;4.940;2022-08-05T06:10:09;4.85;;;0.93;;
40254;SDS011;25973;52.368;4.940;2022-08-05T06:12:36;2.92;;;0.80;;
40254;SDS011;25973;52.368;4.940;2022-08-05T06:15:02;7.00;;;1.00;;
40254;SDS011;25973;52.368;4.940;2022-08-05T06:17:29;4.28;;;1.23;;
40254;SDS011;25973;52.368;4.940;2022-08-05T06:19:55;4.13;;;1.13;;
40254;SDS011;25973;52.368;4.940;2022-08-05T06:22:24;6.07;;;1.65;;
40254;SDS011;25973;52.368;4.940;2022-08-05T06:24:51;3.20;;;0.95;;
40254;SDS011;25973;52.368;4.940;2022-08-05T06:27:17;2.38;;;0.90;;
40254;SDS011;25973;52.368;4.940;2022-08-05T06:29:42;3.38;;;1.10;;
40254;SDS011;25973;52.368;4.940;2022-08-05T06:32:08;4.05;;;1.20;;
40254;SDS011;25973;52.368;4.940;2022-08-05T06:34:34;8.77;;;0.73;;
40254;SDS011;25973;52.368;4.940;2022-08-05T06:37:00;4.13;;;1.00;;
40254;SDS011;25973;52.368;4.940;2022-08-05T06:39:26;1.58;;;0.70;;
40254;SDS011;25973;52.368;4.940;2022-08-05T06:41:51;2.45;;;0.68;;
40254;SDS011;25973;52.368;4.940;2022-08-05T06:44:17;3.47;;;1.02;;
40254;SDS011;25973;52.368;4.940;2022-08-05T06:46:42;2.90;;;0.65;;
40254;SDS011;25973;52.368;4.940;2022-08-05T06:49:08;6.30;;;0.85;;
40254;SDS011;25973;52.368;4.940;2022-08-05T06:51:34;4.32;;;0.90;;
40254;SDS011;25973;52.368;4.940;2022-08-05T06:54:01;1.67;;;0.40;;
40254;SDS011;25973;52.368;4.940;2022-08-05T06:56:28;2.28;;;0.50;;
40254;SDS011;25973;52.368;4.940;2022-08-05T06:58:55;0.85;;;0.45;;
40254;SDS011;25973;52.368;4.940;2022-08-05T07:01:20;1.27;;;0.35;;
40254;SDS011;25973;52.368;4.940;2022-08-05T07:03:46;2.92;;;0.73;;
40254;SDS011;25973;52.368;4.940;2022-08-05T07:06:11;2.35;;;0.93;;
40254;SDS011;25973;52.368;4.940;2022-08-05T07:08:37;2.05;;;0.40;;
40254;SDS011;25973;52.368;4.940;2022-08-05T07:11:03;2.72;;;0.70;;
40254;SDS011;25973;52.368;4.940;2022-08-05T07:13:29;2.17;;;0.63;;
40254;SDS011;25973;52.368;4.940;2022-08-05T07:16:13;1.88;;;0.50;;
40254;SDS011;25973;52.368;4.940;2022-08-05T07:18:57;1.15;;;0.50;;
40254;SDS011;25973;52.368;4.940;2022-08-05T07:21:22;3.28;;;0.80;;
40254;SDS011;25973;52.368;4.940;2022-08-05T07:23:48;1.00;;;0.45;;
40254;SDS011;25973;52.368;4.940;2022-08-05T07:26:13;3.33;;;0.50;;
40254;SDS011;25973;52.368;4.940;2022-08-05T07:28:39;2.30;;;0.55;;
40254;SDS011;25973;52.368;4.940;2022-08-05T07:31:05;0.52;;;0.40;;
40254;SDS011;25973;52.368;4.940;2022-08-05T07:33:31;0.20;;;0.20;;
40254;SDS011;25973;52.368;4.940;2022-08-05T07:35:57;2.25;;;0.50;;
40254;SDS011;25973;52.368;4.940;2022-08-05T07:38:23;2.00;;;0.68;;
40254;SDS011;25973;52.368;4.940;2022-08-05T07:40:49;4.03;;;0.90;;
40254;SDS011;25973;52.368;4.940;2022-08-05T07:43:15;1.80;;;0.30;;
40254;SDS011;25973;52.368;4.940;2022-08-05T07:45:43;4.47;;;1.10;;
40254;SDS011;25973;52.368;4.940;2022-08-05T07:48:09;1.35;;;0.40;;
40254;SDS011;25973;52.368;4.940;2022-08-05T07:50:35;2.97;;;0.32;;
40254;SDS011;25973;52.368;4.940;2022-08-05T07:53:01;5.43;;;0.90;;
40254;SDS011;25973;52.368;4.940;2022-08-05T07:55:27;3.45;;;0.60;;
40254;SDS011;25973;52.368;4.940;2022-08-05T07:57:54;2.88;;;0.60;;
40254;SDS011;25973;52.368;4.940;2022-08-05T08:00:20;9.23;;;0.85;;
40254;SDS011;25973;52.368;4.940;2022-08-05T08:02:46;6.47;;;2.55;;
40254;SDS011;25973;52.368;4.940;2022-08-05T08:05:11;5.68;;;1.20;;
40254;SDS011;25973;52.368;4.940;2022-08-05T08:07:37;2.95;;;0.93;;
40254;SDS011;25973;52.368;4.940;2022-08-05T08:10:03;2.78;;;0.85;;
40254;SDS011;25973;52.368;4.940;2022-08-05T08:12:29;1.95;;;0.35;;
40254;SDS011;25973;52.368;4.940;2022-08-05T08:14:54;6.50;;;0.55;;
40254;SDS011;25973;52.368;4.940;2022-08-05T08:17:20;5.32;;;1.20;;
40254;SDS011;25973;52.368;4.940;2022-08-05T08:19:46;6.38;;;1.10;;
40254;SDS011;25973;52.368;4.940;2022-08-05T08:22:11;6.13;;;1.52;;
40254;SDS011;25973;52.368;4.940;2022-08-05T08:24:37;5.82;;;1.10;;
40254;SDS011;25973;52.368;4.940;2022-08-05T08:27:06;6.22;;;0.63;;
40254;SDS011;25973;52.368;4.940;2022-08-05T08:29:32;0.70;;;0.30;;
40254;SDS011;25973;52.368;4.940;2022-08-05T08:31:58;1.27;;;0.25;;
40254;SDS011;25973;52.368;4.940;2022-08-05T08:34:24;1.90;;;0.40;;
40254;SDS011;25973;52.368;4.940;2022-08-05T08:36:50;2.05;;;0.30;;
40254;SDS011;25973;52.368;4.940;2022-08-05T08:39:17;0.98;;;0.20;;
40254;SDS011;25973;52.368;4.940;2022-08-05T08:41:44;1.23;;;0.60;;
40254;SDS011;25973;52.368;4.940;2022-08-05T08:44:14;4.20;;;0.75;;
40254;SDS011;25973;52.368;4.940;2022-08-05T08:46:40;4.88;;;0.75;;
40254;SDS011;25973;52.368;4.940;2022-08-05T08:49:07;1.65;;;0.30;;
40254;SDS011;25973;52.368;4.940;2022-08-05T08:51:37;3.00;;;0.60;;
40254;SDS011;25973;52.368;4.940;2022-08-05T08:54:04;4.85;;;1.83;;
40254;SDS011;25973;52.368;4.940;2022-08-05T08:56:29;1.88;;;0.52;;
40254;SDS011;25973;52.368;4.940;2022-08-05T08:58:56;0.75;;;0.30;;
40254;SDS011;25973;52.368;4.940;2022-08-05T09:01:24;2.17;;;0.30;;
40254;SDS011;25973;52.368;4.940;2022-08-05T09:03:50;1.95;;;0.20;;
40254;SDS011;25973;52.368;4.940;2022-08-05T09:06:18;1.02;;;0.30;;
40254;SDS011;25973;52.368;4.940;2022-08-05T09:08:44;1.00;;;0.57;;
40254;SDS011;25973;52.368;4.940;2022-08-05T09:11:10;1.38;;;0.32;;
40254;SDS011;25973;52.368;4.940;2022-08-05T09:13:36;1.38;;;0.20;;
40254;SDS011;25973;52.368;4.940;2022-08-05T09:16:05;1.25;;;0.25;;
40254;SDS011;25973;52.368;4.940;2022-08-05T09:18:35;0.40;;;0.30;;
40254;SDS011;25973;52.368;4.940;2022-08-05T09:21:01;1.58;;;0.38;;
40254;SDS011;25973;52.368;4.940;2022-08-05T09:23:27;2.53;;;0.40;;
40254;SDS011;25973;52.368;4.940;2022-08-05T09:26:04;3.22;;;0.52;;
40254;SDS011;25973;52.368;4.940;2022-08-05T09:28:31;1.73;;;0.30;;
40254;SDS011;25973;52.368;4.940;2022-08-05T09:31:05;2.10;;;0.82;;
40254;SDS011;25973;52.368;4.940;2022-08-05T09:33:46;3.35;;;0.52;;
40254;SDS011;25973;52.368;4.940;2022-08-05T09:36:13;2.28;;;0.70;;
40254;SDS011;25973;52.368;4.940;2022-08-05T09:38:39;1.65;;;0.55;;
40254;SDS011;25973;52.368;4.940;2022-08-05T09:41:30;1.23;;;0.40;;
40254;SDS011;25973;52.368;4.940;2022-08-05T09:43:56;1.67;;;0.40;;
40254;SDS011;25973;52.368;4.940;2022-08-05T09:46:23;0.90;;;0.40;;
40254;SDS011;25973;52.368;4.940;2022-08-05T09:48:50;4.32;;;2.33;;
40254;SDS011;25973;52.368;4.940;2022-08-05T09:51:27;1.45;;;0.60;;
40254;SDS011;25973;52.368;4.940;2022-08-05T09:53:56;4.68;;;0.40;;
40254;SDS011;25973;52.368;4.940;2022-08-05T09:56:23;4.97;;;0.60;;
40254;SDS011;25973;52.368;4.940;2022-08-05T09:59:03;3.65;;;0.38;;
40254;SDS011;25973;52.368;4.940;2022-08-05T10:01:35;1.55;;;0.30;;
40254;SDS011;25973;52.368;4.940;2022-08-05T10:06:29;0.65;;;0.22;;
40254;SDS011;25973;52.368;4.940;2022-08-05T10:08:57;3.03;;;0.40;;
40254;SDS011;25973;52.368;4.940;2022-08-05T10:11:39;0.73;;;0.30;;
40254;SDS011;25973;52.368;4.940;2022-08-05T10:16:47;2.22;;;1.20;;
40254;SDS011;25973;52.368;4.940;2022-08-05T10:19:13;2.53;;;0.50;;
40254;SDS011;25973;52.368;4.940;2022-08-05T10:21:39;2.35;;;0.43;;
40254;SDS011;25973;52.368;4.940;2022-08-05T10:24:05;1.52;;;0.80;;
40254;SDS011;25973;52.368;4.940;2022-08-05T10:26:31;0.73;;;0.32;;
40254;SDS011;25973;52.368;4.940;2022-08-05T10:28:57;3.22;;;0.52;;
40254;SDS011;25973;52.368;4.940;2022-08-05T10:31:22;1.55;;;0.35;;
40254;SDS011;25973;52.368;4.940;2022-08-05T10:33:48;4.03;;;0.45;;
40254;SDS011;25973;52.368;4.940;2022-08-05T10:36:14;0.70;;;0.35;;
40254;SDS011;25973;52.368;4.940;2022-08-05T10:38:41;2.40;;;0.40;;
40254;SDS011;25973;52.368;4.940;2022-08-05T10:41:17;2.42;;;0.60;;
40254;SDS011;25973;52.368;4.940;2022-08-05T10:44:09;2.85;;;0.30;;
40254;SDS011;25973;52.368;4.940;2022-08-05T10:46:47;1.85;;;0.30;;
40254;SDS011;25973;52.368;4.940;2022-08-05T10:49:17;1.23;;;0.40;;
40254;SDS011;25973;52.368;4.940;2022-08-05T10:51:47;4.22;;;0.32;;
40254;SDS011;25973;52.368;4.940;2022-08-05T10:54:14;0.77;;;0.68;;
40254;SDS011;25973;52.368;4.940;2022-08-05T10:56:50;3.67;;;0.38;;
40254;SDS011;25973;52.368;4.940;2022-08-05T10:59:29;4.68;;;1.65;;
40254;SDS011;25973;52.368;4.940;2022-08-05T11:02:06;1.48;;;0.65;;
40254;SDS011;25973;52.368;4.940;2022-08-05T11:04:46;2.42;;;0.77;;
40254;SDS011;25973;52.368;4.940;2022-08-05T11:07:18;3.65;;;1.08;;
40254;SDS011;25973;52.368;4.940;2022-08-05T11:09:46;0.57;;;0.30;;
40254;SDS011;25973;52.368;4.940;2022-08-05T11:15:35;2.20;;;0.73;;
40254;SDS011;25973;52.368;4.940;2022-08-05T11:20:53;2.05;;;0.55;;
40254;SDS011;25973;52.368;4.940;2022-08-05T11:23:29;1.05;;;0.40;;
40254;SDS011;25973;52.368;4.940;2022-08-05T11:26:09;0.70;;;0.63;;
40254;SDS011;25973;52.368;4.940;2022-08-05T11:28:36;0.82;;;0.38;;
40254;SDS011;25973;52.368;4.940;2022-08-05T11:36:07;1.92;;;0.75;;
40254;SDS011;25973;52.368;4.940;2022-08-05T11:41:03;0.75;;;0.38;;
40254;SDS011;25973;52.368;4.940;2022-08-05T11:43:30;3.13;;;0.43;;
40254;SDS011;25973;52.368;4.940;2022-08-05T11:45:56;1.80;;;0.28;;
40254;SDS011;25973;52.368;4.940;2022-08-05T11:48:23;5.18;;;0.52;;
40254;SDS011;25973;52.368;4.940;2022-08-05T11:50:49;6.60;;;0.40;;
40254;SDS011;25973;52.368;4.940;2022-08-05T11:53:17;2.28;;;0.50;;
40254;SDS011;25973;52.368;4.940;2022-08-05T11:55:57;2.08;;;0.38;;
40254;SDS011;25973;52.368;4.940;2022-08-05T12:03:39;4.72;;;0.70;;
40254;SDS011;25973;52.368;4.940;2022-08-05T12:06:06;2.88;;;0.63;;
40254;SDS011;25973;52.368;4.940;2022-08-05T12:08:33;3.30;;;0.35;;
40254;SDS011;25973;52.368;4.940;2022-08-05T12:11:21;1.15;;;0.40;;
40254;SDS011;25973;52.368;4.940;2022-08-05T12:13:52;3.05;;;0.40;;
40254;SDS011;25973;52.368;4.940;2022-08-05T12:16:22;6.85;;;0.50;;
40254;SDS011;25973;52.368;4.940;2022-08-05T12:18:50;1.50;;;0.30;;
40254;SDS011;25973;52.368;4.940;2022-08-05T12:21:21;1.08;;;0.40;;
40254;SDS011;25973;52.368;4.940;2022-08-05T12:23:54;2.37;;;0.30;;
40254;SDS011;25973;52.368;4.940;2022-08-05T12:29:04;0.35;;;0.20;;
40254;SDS011;25973;52.368;4.940;2022-08-05T12:31:31;4.10;;;0.55;;
40254;SDS011;25973;52.368;4.940;2022-08-05T12:33:59;2.08;;;0.50;;
40254;SDS011;25973;52.368;4.940;2022-08-05T12:36:26;3.95;;;0.28;;
40254;SDS011;25973;52.368;4.940;2022-08-05T12:38:51;2.83;;;0.75;;
40254;SDS011;25973;52.368;4.940;2022-08-05T12:41:17;2.65;;;0.40;;
40254;SDS011;25973;52.368;4.940;2022-08-05T12:43:47;5.10;;;0.80;;
40254;SDS011;25973;52.368;4.940;2022-08-05T12:46:32;5.63;;;2.40;;
40254;SDS011;25973;52.368;4.940;2022-08-05T12:51:25;1.38;;;0.40;;
40254;SDS011;25973;52.368;4.940;2022-08-05T12:53:51;1.33;;;0.38;;
40254;SDS011;25973;52.368;4.940;2022-08-05T12:56:23;2.08;;;0.30;;
40254;SDS011;25973;52.368;4.940;2022-08-05T13:01:44;0.73;;;0.32;;
40254;SDS011;25973;52.368;4.940;2022-08-05T13:04:32;1.38;;;0.30;;
40254;SDS011;25973;52.368;4.940;2022-08-05T13:07:00;0.60;;;0.30;;
40254;SDS011;25973;52.368;4.940;2022-08-05T13:09:28;3.35;;;0.32;;
40254;SDS011;25973;52.368;4.940;2022-08-05T13:12:00;1.90;;;0.47;;
40254;SDS011;25973;52.368;4.940;2022-08-05T13:14:28;0.50;;;0.20;;
40254;SDS011;25973;52.368;4.940;2022-08-05T13:17:07;0.90;;;0.30;;
40254;SDS011;25973;52.368;4.940;2022-08-05T13:19:34;1.23;;;0.35;;
40254;SDS011;25973;52.368;4.940;2022-08-05T13:22:02;7.22;;;3.72;;
40254;SDS011;25973;52.368;4.940;2022-08-05T13:24:28;4.60;;;0.85;;
40254;SDS011;25973;52.368;4.940;2022-08-05T13:26:56;2.00;;;0.50;;
40254;SDS011;25973;52.368;4.940;2022-08-05T13:29:24;1.17;;;0.35;;
40254;SDS011;25973;52.368;4.940;2022-08-05T13:31:50;1.10;;;0.17;;
40254;SDS011;25973;52.368;4.940;2022-08-05T13:34:16;1.17;;;0.35;;
40254;SDS011;25973;52.368;4.940;2022-08-05T13:36:42;4.47;;;0.95;;
40254;SDS011;25973;52.368;4.940;2022-08-05T13:39:08;6.40;;;0.77;;
40254;SDS011;25973;52.368;4.940;2022-08-05T13:41:34;6.95;;;1.58;;
40254;SDS011;25973;52.368;4.940;2022-08-05T13:44:01;7.10;;;0.63;;
40254;SDS011;25973;52.368;4.940;2022-08-05T13:46:27;4.60;;;0.65;;
40254;SDS011;25973;52.368;4.940;2022-08-05T13:48:53;6.28;;;1.05;;
40254;SDS011;25973;52.368;4.940;2022-08-05T13:51:31;2.83;;;0.22;;
40254;SDS011;25973;52.368;4.940;2022-08-05T13:53:57;3.00;;;0.35;;
40254;SDS011;25973;52.368;4.940;2022-08-05T13:56:23;3.47;;;0.50;;
40254;SDS011;25973;52.368;4.940;2022-08-05T13:58:49;4.18;;;0.68;;
40254;SDS011;25973;52.368;4.940;2022-08-05T14:01:15;3.35;;;0.50;;
40254;SDS011;25973;52.368;4.940;2022-08-05T14:03:40;4.07;;;0.30;;
40254;SDS011;25973;52.368;4.940;2022-08-05T14:06:06;1.38;;;0.65;;
40254;SDS011;25973;52.368;4.940;2022-08-05T14:08:32;5.15;;;1.00;;
40254;SDS011;25973;52.368;4.940;2022-08-05T14:10:57;1.20;;;0.30;;
40254;SDS011;25973;52.368;4.940;2022-08-05T14:13:23;3.50;;;0.43;;
40254;SDS011;25973;52.368;4.940;2022-08-05T14:15:49;2.10;;;0.35;;
40254;SDS011;25973;52.368;4.940;2022-08-05T14:18:16;1.75;;;0.40;;
40254;SDS011;25973;52.368;4.940;2022-08-05T14:20:41;3.35;;;0.55;;
40254;SDS011;25973;52.368;4.940;2022-08-05T14:23:07;0.68;;;0.20;;
40254;SDS011;25973;52.368;4.940;2022-08-05T14:25:33;1.50;;;0.40;;
40254;SDS011;25973;52.368;4.940;2022-08-05T14:27:58;3.42;;;0.50;;
40254;SDS011;25973;52.368;4.940;2022-08-05T14:30:24;5.97;;;0.47;;
40254;SDS011;25973;52.368;4.940;2022-08-05T14:32:50;5.88;;;1.05;;
40254;SDS011;25973;52.368;4.940;2022-08-05T14:35:18;1.05;;;0.40;;
40254;SDS011;25973;52.368;4.940;2022-08-05T14:37:47;4.32;;;0.90;;
40254;SDS011;25973;52.368;4.940;2022-08-05T14:40:12;7.05;;;0.50;;
40254;SDS011;25973;52.368;4.940;2022-08-05T14:42:38;2.95;;;1.02;;
40254;SDS011;25973;52.368;4.940;2022-08-05T14:45:05;5.78;;;0.70;;
40254;SDS011;25973;52.368;4.940;2022-08-05T14:47:31;1.70;;;0.40;;
40254;SDS011;25973;52.368;4.940;2022-08-05T14:49:57;5.57;;;0.65;;
40254;SDS011;25973;52.368;4.940;2022-08-05T14:52:22;2.25;;;0.60;;
40254;SDS011;25973;52.368;4.940;2022-08-05T14:54:48;2.10;;;0.40;;
40254;SDS011;25973;52.368;4.940;2022-08-05T14:57:13;6.03;;;0.95;;
40254;SDS011;25973;52.368;4.940;2022-08-05T14:59:39;4.95;;;0.40;;
40254;SDS011;25973;52.368;4.940;2022-08-05T15:02:04;1.90;;;0.50;;
40254;SDS011;25973;52.368;4.940;2022-08-05T15:04:30;1.70;;;0.57;;
40254;SDS011;25973;52.368;4.940;2022-08-05T15:06:56;5.55;;;0.50;;
40254;SDS011;25973;52.368;4.940;2022-08-05T15:09:21;3.95;;;0.50;;
40254;SDS011;25973;52.368;4.940;2022-08-05T15:11:47;3.13;;;0.50;;
40254;SDS011;25973;52.368;4.940;2022-08-05T15:14:13;2.05;;;0.30;;
40254;SDS011;25973;52.368;4.940;2022-08-05T15:16:39;0.77;;;0.20;;
40254;SDS011;25973;52.368;4.940;2022-08-05T15:19:04;2.08;;;0.47;;
40254;SDS011;25973;52.368;4.940;2022-08-05T15:21:30;0.57;;;0.30;;
40254;SDS011;25973;52.368;4.940;2022-08-05T15:23:55;1.73;;;0.40;;
40254;SDS011;25973;52.368;4.940;2022-08-05T15:26:21;4.88;;;0.40;;
40254;SDS011;25973;52.368;4.940;2022-08-05T15:28:46;5.30;;;0.80;;
40254;SDS011;25973;52.368;4.940;2022-08-05T15:31:12;2.10;;;0.40;;
40254;SDS011;25973;52.368;4.940;2022-08-05T15:33:37;2.95;;;0.68;;
40254;SDS011;25973;52.368;4.940;2022-08-05T15:36:03;3.15;;;0.65;;